sensor_id;sensor_type;location;lat;lon;timestamp;temperature;humidity
2651;DHT22;1335;48.180;16.342;2022-10-31T00:01:37;11.90;99.90
2651;DHT22;1335;48.180;16.342;2022-10-31T00:04:05;11.90;99.90
2651;DHT22;1335;48.180;16.342;2022-10-31T00:06:32;11.40;99.90
2651;DHT22;1335;48.180;16.342;2022-10-31T00:09:01;11.00;99.90
2651;DHT22;1335;48.180;16.342;2022-10-31T00:11:28;11.20;99.90
2651;DHT22;1335;48.180;16.342;2022-10-31T00:13:56;10.90;99.90
2651;DHT22;1335;48.180;16.342;2022-10-31T00:16:25;10.90;99.90
2651;DHT22;1335;48.180;16.342;2022-10-31T00:18:55;10.80;99.90
2651;DHT22;1335;48.180;16.342;2022-10-31T00:21:22;10.90;99.90
2651;DHT22;1335;48.180;16.342;2022-10-31T00:23:50;11.20;99.90
2651;DHT22;1335;48.180;16.342;2022-10-31T00:26:17;11.60;99.90
2651;DHT22;1335;48.180;16.342;2022-10-31T00:28:45;11.10;99.90
2651;DHT22;1335;48.180;16.342;2022-10-31T00:31:12;11.40;99.90
2651;DHT22;1335;48.180;16.342;2022-10-31T00:33:41;11.00;99.90
2651;DHT22;1335;48.180;16.342;2022-10-31T00:36:11;11.10;99.90
2651;DHT22;1335;48.180;16.342;2022-10-31T00:38:39;10.80;99.90
2651;DHT22;1335;48.180;16.342;2022-10-31T00:41:06;11.20;99.90
2651;DHT22;1335;48.180;16.342;2022-10-31T00:43:33;10.70;99.90
2651;DHT22;1335;48.180;16.342;2022-10-31T00:46:01;11.50;99.90
2651;DHT22;1335;48.180;16.342;2022-10-31T00:48:28;11.50;99.90
2651;DHT22;1335;48.180;16.342;2022-10-31T00:50:56;11.50;99.90
2651;DHT22;1335;48.180;16.342;2022-10-31T00:53:24;11.60;99.90
2651;DHT22;1335;48.180;16.342;2022-10-31T00:55:51;11.10;99.90
2651;DHT22;1335;48.180;16.342;2022-10-31T00:58:18;11.40;99.90
2651;DHT22;1335;48.180;16.342;2022-10-31T01:00:47;11.40;99.90
2651;DHT22;1335;48.180;16.342;2022-10-31T01:03:21;11.60;99.90
2651;DHT22;1335;48.180;16.342;2022-10-31T01:05:57;10.40;99.90
2651;DHT22;1335;48.180;16.342;2022-10-31T01:08:24;11.60;99.90
2651;DHT22;1335;48.180;16.342;2022-10-31T01:11:02;11.30;99.90
2651;DHT22;1335;48.180;16.342;2022-10-31T01:13:29;11.60;99.90
2651;DHT22;1335;48.180;16.342;2022-10-31T01:15:57;11.80;99.90
2651;DHT22;1335;48.180;16.342;2022-10-31T01:18:25;11.40;99.90
2651;DHT22;1335;48.180;16.342;2022-10-31T01:21:02;12.10;99.90
2651;DHT22;1335;48.180;16.342;2022-10-31T01:23:31;12.00;99.90
2651;DHT22;1335;48.180;16.342;2022-10-31T01:26:16;11.00;99.90
2651;DHT22;1335;48.180;16.342;2022-10-31T01:28:46;11.60;99.90
2651;DHT22;1335;48.180;16.342;2022-10-31T01:31:13;12.10;99.90
2651;DHT22;1335;48.180;16.342;2022-10-31T01:33:41;11.80;99.90
2651;DHT22;1335;48.180;16.342;2022-10-31T01:36:19;12.20;99.90
2651;DHT22;1335;48.180;16.342;2022-10-31T01:38:47;11.70;99.90
2651;DHT22;1335;48.180;16.342;2022-10-31T01:41:16;11.80;99.90
2651;DHT22;1335;48.180;16.342;2022-10-31T01:43:46;12.10;99.90
2651;DHT22;1335;48.180;16.342;2022-10-31T01:46:16;11.80;99.90
2651;DHT22;1335;48.180;16.342;2022-10-31T01:48:45;12.20;99.90
2651;DHT22;1335;48.180;16.342;2022-10-31T01:51:16;11.60;99.90
2651;DHT22;1335;48.180;16.342;2022-10-31T01:53:46;12.10;99.90
2651;DHT22;1335;48.180;16.342;2022-10-31T01:56:16;11.80;99.90
2651;DHT22;1335;48.180;16.342;2022-10-31T01:58:45;12.30;99.90
2651;DHT22;1335;48.180;16.342;2022-10-31T02:01:14;12.20;99.90
2651;DHT22;1335;48.180;16.342;2022-10-31T02:03:43;12.00;99.90
2651;DHT22;1335;48.180;16.342;2022-10-31T02:06:19;12.40;99.90
2651;DHT22;1335;48.180;16.342;2022-10-31T02:08:48;12.20;99.90
2651;DHT22;1335;48.180;16.342;2022-10-31T02:11:15;11.80;99.90
2651;DHT22;1335;48.180;16.342;2022-10-31T02:13:43;11.70;99.90
2651;DHT22;1335;48.180;16.342;2022-10-31T02:16:10;12.00;99.90
2651;DHT22;1335;48.180;16.342;2022-10-31T02:18:37;12.20;99.90
2651;DHT22;1335;48.180;16.342;2022-10-31T02:21:11;12.00;99.90
2651;DHT22;1335;48.180;16.342;2022-10-31T02:27:03;12.00;99.90
2651;DHT22;1335;48.180;16.342;2022-10-31T02:29:53;12.40;99.90
2651;DHT22;1335;48.180;16.342;2022-10-31T02:32:29;11.90;99.90
2651;DHT22;1335;48.180;16.342;2022-10-31T02:35:07;12.40;99.90
2651;DHT22;1335;48.180;16.342;2022-10-31T02:37:41;11.90;99.90
2651;DHT22;1335;48.180;16.342;2022-10-31T02:40:15;11.90;99.90
2651;DHT22;1335;48.180;16.342;2022-10-31T02:42:50;12.50;99.90
2651;DHT22;1335;48.180;16.342;2022-10-31T02:45:25;11.90;99.90
2651;DHT22;1335;48.180;16.342;2022-10-31T02:47:59;11.90;99.90
2651;DHT22;1335;48.180;16.342;2022-10-31T02:50:29;11.70;99.90
2651;DHT22;1335;48.180;16.342;2022-10-31T02:52:57;12.10;99.90
2651;DHT22;1335;48.180;16.342;2022-10-31T02:55:51;12.20;99.90
2651;DHT22;1335;48.180;16.342;2022-10-31T02:58:23;12.30;99.90
2651;DHT22;1335;48.180;16.342;2022-10-31T03:01:04;12.10;99.90
2651;DHT22;1335;48.180;16.342;2022-10-31T03:03:44;12.00;99.90
2651;DHT22;1335;48.180;16.342;2022-10-31T03:06:16;11.80;99.90
2651;DHT22;1335;48.180;16.342;2022-10-31T03:08:50;12.30;99.90
2651;DHT22;1335;48.180;16.342;2022-10-31T03:11:23;11.40;99.90
2651;DHT22;1335;48.180;16.342;2022-10-31T03:13:56;12.50;99.90
2651;DHT22;1335;48.180;16.342;2022-10-31T03:16:29;12.30;99.90
2651;DHT22;1335;48.180;16.342;2022-10-31T03:19:03;12.10;99.90
2651;DHT22;1335;48.180;16.342;2022-10-31T03:21:35;12.20;99.90
2651;DHT22;1335;48.180;16.342;2022-10-31T03:24:05;11.80;99.90
2651;DHT22;1335;48.180;16.342;2022-10-31T03:26:34;11.90;99.90
2651;DHT22;1335;48.180;16.342;2022-10-31T03:29:04;11.80;99.90
2651;DHT22;1335;48.180;16.342;2022-10-31T03:31:37;12.10;99.90
2651;DHT22;1335;48.180;16.342;2022-10-31T03:34:07;12.10;99.90
2651;DHT22;1335;48.180;16.342;2022-10-31T03:36:38;12.10;99.90
2651;DHT22;1335;48.180;16.342;2022-10-31T03:39:08;11.90;99.90
2651;DHT22;1335;48.180;16.342;2022-10-31T03:41:41;11.80;99.90
2651;DHT22;1335;48.180;16.342;2022-10-31T03:44:12;11.80;99.90
2651;DHT22;1335;48.180;16.342;2022-10-31T03:46:40;12.50;99.90
2651;DHT22;1335;48.180;16.342;2022-10-31T03:49:10;12.10;99.90
2651;DHT22;1335;48.180;16.342;2022-10-31T03:51:43;11.80;99.90
2651;DHT22;1335;48.180;16.342;2022-10-31T03:54:17;11.90;99.90
2651;DHT22;1335;48.180;16.342;2022-10-31T03:56:50;12.00;99.90
2651;DHT22;1335;48.180;16.342;2022-10-31T03:59:23;11.80;99.90
2651;DHT22;1335;48.180;16.342;2022-10-31T04:01:53;11.70;99.90
2651;DHT22;1335;48.180;16.342;2022-10-31T04:04:25;11.50;99.90
2651;DHT22;1335;48.180;16.342;2022-10-31T04:06:54;11.30;99.90
2651;DHT22;1335;48.180;16.342;2022-10-31T04:09:23;12.00;99.90
2651;DHT22;1335;48.180;16.342;2022-10-31T04:11:55;11.80;99.90
2651;DHT22;1335;48.180;16.342;2022-10-31T04:14:24;12.40;99.90
2651;DHT22;1335;48.180;16.342;2022-10-31T04:16:53;11.80;99.90
2651;DHT22;1335;48.180;16.342;2022-10-31T04:19:21;10.80;99.90
2651;DHT22;1335;48.180;16.342;2022-10-31T04:21:50;11.70;99.90
2651;DHT22;1335;48.180;16.342;2022-10-31T04:24:17;11.40;99.90
2651;DHT22;1335;48.180;16.342;2022-10-31T04:26:45;11.60;99.90
2651;DHT22;1335;48.180;16.342;2022-10-31T04:29:12;11.50;99.90
2651;DHT22;1335;48.180;16.342;2022-10-31T04:31:39;11.70;99.90
2651;DHT22;1335;48.180;16.342;2022-10-31T04:34:06;11.50;99.90
2651;DHT22;1335;48.180;16.342;2022-10-31T04:36:34;11.70;99.90
2651;DHT22;1335;48.180;16.342;2022-10-31T04:39:02;11.30;99.90
2651;DHT22;1335;48.180;16.342;2022-10-31T04:41:29;11.10;99.90
2651;DHT22;1335;48.180;16.342;2022-10-31T04:43:56;11.40;99.90
2651;DHT22;1335;48.180;16.342;2022-10-31T04:46:23;11.30;99.90
2651;DHT22;1335;48.180;16.342;2022-10-31T04:48:51;11.80;99.90
2651;DHT22;1335;48.180;16.342;2022-10-31T04:51:18;11.20;99.90
2651;DHT22;1335;48.180;16.342;2022-10-31T04:53:45;11.40;99.90
2651;DHT22;1335;48.180;16.342;2022-10-31T04:56:14;11.60;99.90
2651;DHT22;1335;48.180;16.342;2022-10-31T04:58:41;11.70;99.90
2651;DHT22;1335;48.180;16.342;2022-10-31T05:01:09;11.60;99.90
2651;DHT22;1335;48.180;16.342;2022-10-31T05:03:36;11.10;99.90
2651;DHT22;1335;48.180;16.342;2022-10-31T05:06:05;11.00;99.90
2651;DHT22;1335;48.180;16.342;2022-10-31T05:08:32;11.50;99.90
2651;DHT22;1335;48.180;16.342;2022-10-31T05:11:00;10.80;99.90
2651;DHT22;1335;48.180;16.342;2022-10-31T05:13:29;10.70;99.90
2651;DHT22;1335;48.180;16.342;2022-10-31T05:15:56;11.20;99.90
2651;DHT22;1335;48.180;16.342;2022-10-31T05:18:23;11.60;99.90
2651;DHT22;1335;48.180;16.342;2022-10-31T05:20:51;10.80;99.90
2651;DHT22;1335;48.180;16.342;2022-10-31T05:23:18;11.60;99.90
2651;DHT22;1335;48.180;16.342;2022-10-31T05:25:45;11.20;99.90
2651;DHT22;1335;48.180;16.342;2022-10-31T05:28:12;11.20;99.90
2651;DHT22;1335;48.180;16.342;2022-10-31T05:30:40;11.40;99.90
2651;DHT22;1335;48.180;16.342;2022-10-31T05:33:07;11.40;99.90
2651;DHT22;1335;48.180;16.342;2022-10-31T05:35:35;11.50;99.90
2651;DHT22;1335;48.180;16.342;2022-10-31T05:38:02;11.10;99.90
2651;DHT22;1335;48.180;16.342;2022-10-31T05:40:29;11.30;99.90
2651;DHT22;1335;48.180;16.342;2022-10-31T05:42:57;11.00;99.90
2651;DHT22;1335;48.180;16.342;2022-10-31T05:45:25;11.40;99.90
2651;DHT22;1335;48.180;16.342;2022-10-31T05:47:55;11.30;99.90
2651;DHT22;1335;48.180;16.342;2022-10-31T05:50:23;11.40;99.90
2651;DHT22;1335;48.180;16.342;2022-10-31T05:52:55;11.10;99.90
2651;DHT22;1335;48.180;16.342;2022-10-31T05:55:22;11.00;99.90
2651;DHT22;1335;48.180;16.342;2022-10-31T05:57:51;11.80;99.90
2651;DHT22;1335;48.180;16.342;2022-10-31T06:00:19;11.80;99.90
2651;DHT22;1335;48.180;16.342;2022-10-31T06:02:46;11.10;99.90
2651;DHT22;1335;48.180;16.342;2022-10-31T06:05:15;11.40;99.90
2651;DHT22;1335;48.180;16.342;2022-10-31T06:07:43;11.50;99.90
2651;DHT22;1335;48.180;16.342;2022-10-31T06:10:10;11.40;99.90
2651;DHT22;1335;48.180;16.342;2022-10-31T06:12:37;11.30;99.90
2651;DHT22;1335;48.180;16.342;2022-10-31T06:15:07;11.50;99.90
2651;DHT22;1335;48.180;16.342;2022-10-31T06:17:35;12.00;99.90
2651;DHT22;1335;48.180;16.342;2022-10-31T06:20:03;10.70;99.90
2651;DHT22;1335;48.180;16.342;2022-10-31T06:22:32;11.30;99.90
2651;DHT22;1335;48.180;16.342;2022-10-31T06:24:59;11.50;99.90
2651;DHT22;1335;48.180;16.342;2022-10-31T06:27:26;11.60;99.90
2651;DHT22;1335;48.180;16.342;2022-10-31T06:29:54;11.50;99.90
2651;DHT22;1335;48.180;16.342;2022-10-31T06:32:21;11.50;99.90
2651;DHT22;1335;48.180;16.342;2022-10-31T06:34:48;11.80;99.90
2651;DHT22;1335;48.180;16.342;2022-10-31T06:37:15;11.80;99.90
2651;DHT22;1335;48.180;16.342;2022-10-31T06:39:44;11.60;99.90
2651;DHT22;1335;48.180;16.342;2022-10-31T06:42:11;11.80;99.90
2651;DHT22;1335;48.180;16.342;2022-10-31T06:44:39;11.80;99.90
2651;DHT22;1335;48.180;16.342;2022-10-31T06:47:06;11.60;99.90
2651;DHT22;1335;48.180;16.342;2022-10-31T06:49:33;11.90;99.90
2651;DHT22;1335;48.180;16.342;2022-10-31T06:52:00;11.90;99.90
2651;DHT22;1335;48.180;16.342;2022-10-31T06:54:28;11.30;99.90
2651;DHT22;1335;48.180;16.342;2022-10-31T06:56:56;12.40;99.90
2651;DHT22;1335;48.180;16.342;2022-10-31T06:59:23;12.00;99.90
2651;DHT22;1335;48.180;16.342;2022-10-31T07:01:50;11.80;99.90
2651;DHT22;1335;48.180;16.342;2022-10-31T07:04:18;11.10;99.90
2651;DHT22;1335;48.180;16.342;2022-10-31T07:06:45;12.30;99.90
2651;DHT22;1335;48.180;16.342;2022-10-31T07:09:12;12.00;99.90
2651;DHT22;1335;48.180;16.342;2022-10-31T07:11:39;11.60;99.90
2651;DHT22;1335;48.180;16.342;2022-10-31T07:14:08;11.70;99.90
2651;DHT22;1335;48.180;16.342;2022-10-31T07:16:35;12.10;99.90
2651;DHT22;1335;48.180;16.342;2022-10-31T07:19:02;11.40;99.90
2651;DHT22;1335;48.180;16.342;2022-10-31T07:21:30;12.20;99.90
2651;DHT22;1335;48.180;16.342;2022-10-31T07:23:57;12.70;99.90
2651;DHT22;1335;48.180;16.342;2022-10-31T07:26:24;12.00;99.90
2651;DHT22;1335;48.180;16.342;2022-10-31T07:28:53;12.30;99.90
2651;DHT22;1335;48.180;16.342;2022-10-31T07:31:22;12.60;99.90
2651;DHT22;1335;48.180;16.342;2022-10-31T07:33:50;12.30;99.90
2651;DHT22;1335;48.180;16.342;2022-10-31T07:36:17;12.40;99.90
2651;DHT22;1335;48.180;16.342;2022-10-31T07:38:44;12.10;99.90
2651;DHT22;1335;48.180;16.342;2022-10-31T07:41:12;12.60;99.90
2651;DHT22;1335;48.180;16.342;2022-10-31T07:43:39;12.90;99.90
2651;DHT22;1335;48.180;16.342;2022-10-31T07:46:06;12.80;99.90
2651;DHT22;1335;48.180;16.342;2022-10-31T07:48:53;12.70;99.90
2651;DHT22;1335;48.180;16.342;2022-10-31T07:51:20;12.40;99.90
2651;DHT22;1335;48.180;16.342;2022-10-31T07:53:49;13.00;99.90
2651;DHT22;1335;48.180;16.342;2022-10-31T07:56:34;12.70;99.90
2651;DHT22;1335;48.180;16.342;2022-10-31T07:59:01;13.20;99.90
2651;DHT22;1335;48.180;16.342;2022-10-31T08:01:29;13.10;99.90
2651;DHT22;1335;48.180;16.342;2022-10-31T08:04:00;12.90;99.90
2651;DHT22;1335;48.180;16.342;2022-10-31T08:06:27;13.50;99.90
2651;DHT22;1335;48.180;16.342;2022-10-31T08:08:55;12.60;99.90
2651;DHT22;1335;48.180;16.342;2022-10-31T08:11:23;12.30;99.90
2651;DHT22;1335;48.180;16.342;2022-10-31T08:13:50;12.60;99.90
2651;DHT22;1335;48.180;16.342;2022-10-31T08:16:20;13.00;99.90
2651;DHT22;1335;48.180;16.342;2022-10-31T08:18:50;12.20;99.90
2651;DHT22;1335;48.180;16.342;2022-10-31T08:21:35;12.70;99.90
2651;DHT22;1335;48.180;16.342;2022-10-31T08:24:03;13.20;99.90
2651;DHT22;1335;48.180;16.342;2022-10-31T08:26:30;13.10;99.90
2651;DHT22;1335;48.180;16.342;2022-10-31T08:28:58;12.80;99.90
2651;DHT22;1335;48.180;16.342;2022-10-31T08:31:27;13.50;99.90
2651;DHT22;1335;48.180;16.342;2022-10-31T08:33:54;12.60;99.90
2651;DHT22;1335;48.180;16.342;2022-10-31T08:36:22;13.30;99.90
2651;DHT22;1335;48.180;16.342;2022-10-31T08:38:51;12.80;99.90
2651;DHT22;1335;48.180;16.342;2022-10-31T08:41:18;13.50;99.90
2651;DHT22;1335;48.180;16.342;2022-10-31T08:43:46;12.90;99.90
2651;DHT22;1335;48.180;16.342;2022-10-31T08:46:13;13.50;99.90
2651;DHT22;1335;48.180;16.342;2022-10-31T08:48:41;12.80;99.90
2651;DHT22;1335;48.180;16.342;2022-10-31T08:51:09;13.00;99.90
2651;DHT22;1335;48.180;16.342;2022-10-31T08:53:36;12.70;99.90
2651;DHT22;1335;48.180;16.342;2022-10-31T08:56:06;12.20;99.90
2651;DHT22;1335;48.180;16.342;2022-10-31T08:58:36;12.40;99.90
2651;DHT22;1335;48.180;16.342;2022-10-31T09:01:03;13.10;99.90
2651;DHT22;1335;48.180;16.342;2022-10-31T09:03:31;12.60;99.90
2651;DHT22;1335;48.180;16.342;2022-10-31T09:06:01;13.00;99.90
2651;DHT22;1335;48.180;16.342;2022-10-31T09:08:30;13.20;99.90
2651;DHT22;1335;48.180;16.342;2022-10-31T09:10:57;13.20;99.90
2651;DHT22;1335;48.180;16.342;2022-10-31T09:13:27;13.50;99.90
2651;DHT22;1335;48.180;16.342;2022-10-31T09:15:56;13.90;99.90
2651;DHT22;1335;48.180;16.342;2022-10-31T09:18:24;13.60;99.90
2651;DHT22;1335;48.180;16.342;2022-10-31T09:20:53;13.40;99.90
2651;DHT22;1335;48.180;16.342;2022-10-31T09:23:23;13.90;99.90
2651;DHT22;1335;48.180;16.342;2022-10-31T09:25:52;14.50;99.90
2651;DHT22;1335;48.180;16.342;2022-10-31T09:28:20;13.70;99.90
2651;DHT22;1335;48.180;16.342;2022-10-31T09:30:51;14.00;99.90
2651;DHT22;1335;48.180;16.342;2022-10-31T09:33:21;13.60;99.90
2651;DHT22;1335;48.180;16.342;2022-10-31T09:35:49;13.40;99.90
2651;DHT22;1335;48.180;16.342;2022-10-31T09:38:18;13.50;99.90
2651;DHT22;1335;48.180;16.342;2022-10-31T09:40:49;13.00;99.90
2651;DHT22;1335;48.180;16.342;2022-10-31T09:43:25;13.50;99.90
2651;DHT22;1335;48.180;16.342;2022-10-31T09:46:04;13.90;99.90
2651;DHT22;1335;48.180;16.342;2022-10-31T09:48:56;13.50;99.90
2651;DHT22;1335;48.180;16.342;2022-10-31T09:51:30;14.00;99.90
2651;DHT22;1335;48.180;16.342;2022-10-31T09:54:04;13.20;99.90
2651;DHT22;1335;48.180;16.342;2022-10-31T09:56:33;13.30;99.90
2651;DHT22;1335;48.180;16.342;2022-10-31T09:59:02;13.30;99.90
2651;DHT22;1335;48.180;16.342;2022-10-31T10:01:39;13.80;99.90
2651;DHT22;1335;48.180;16.342;2022-10-31T10:04:30;14.20;99.90
2651;DHT22;1335;48.180;16.342;2022-10-31T10:07:02;13.90;99.90
2651;DHT22;1335;48.180;16.342;2022-10-31T10:09:29;13.90;99.90
2651;DHT22;1335;48.180;16.342;2022-10-31T10:12:04;14.50;99.90
2651;DHT22;1335;48.180;16.342;2022-10-31T10:15:02;14.10;99.90
2651;DHT22;1335;48.180;16.342;2022-10-31T10:17:42;14.00;99.90
2651;DHT22;1335;48.180;16.342;2022-10-31T10:20:31;13.60;99.90
2651;DHT22;1335;48.180;16.342;2022-10-31T10:23:23;14.30;99.90
2651;DHT22;1335;48.180;16.342;2022-10-31T10:26:00;14.10;99.90
2651;DHT22;1335;48.180;16.342;2022-10-31T10:28:31;13.90;99.90
2651;DHT22;1335;48.180;16.342;2022-10-31T10:31:08;13.00;99.90
2651;DHT22;1335;48.180;16.342;2022-10-31T10:33:47;13.20;99.90
2651;DHT22;1335;48.180;16.342;2022-10-31T10:36:40;13.80;99.90
2651;DHT22;1335;48.180;16.342;2022-10-31T10:39:16;13.00;99.90
2651;DHT22;1335;48.180;16.342;2022-10-31T10:41:47;12.80;99.90
2651;DHT22;1335;48.180;16.342;2022-10-31T10:44:28;12.70;99.90
2651;DHT22;1335;48.180;16.342;2022-10-31T10:47:13;13.40;99.90
2651;DHT22;1335;48.180;16.342;2022-10-31T10:50:01;13.30;99.90
2651;DHT22;1335;48.180;16.342;2022-10-31T10:52:48;12.90;99.90
2651;DHT22;1335;48.180;16.342;2022-10-31T10:55:27;12.60;99.90
2651;DHT22;1335;48.180;16.342;2022-10-31T10:58:07;12.90;99.90
2651;DHT22;1335;48.180;16.342;2022-10-31T11:00:37;13.00;99.90
2651;DHT22;1335;48.180;16.342;2022-10-31T11:03:05;13.30;99.90
2651;DHT22;1335;48.180;16.342;2022-10-31T11:08:42;13.00;99.90
2651;DHT22;1335;48.180;16.342;2022-10-31T11:11:29;13.90;99.90
2651;DHT22;1335;48.180;16.342;2022-10-31T11:14:20;13.70;99.90
2651;DHT22;1335;48.180;16.342;2022-10-31T11:16:50;13.00;99.90
2651;DHT22;1335;48.180;16.342;2022-10-31T11:19:26;13.00;99.90
2651;DHT22;1335;48.180;16.342;2022-10-31T11:22:05;12.80;99.90
2651;DHT22;1335;48.180;16.342;2022-10-31T11:24:39;12.40;99.90
2651;DHT22;1335;48.180;16.342;2022-10-31T11:27:16;12.80;99.90
2651;DHT22;1335;48.180;16.342;2022-10-31T11:29:49;13.30;99.90
2651;DHT22;1335;48.180;16.342;2022-10-31T11:32:20;13.30;99.90
2651;DHT22;1335;48.180;16.342;2022-10-31T11:34:54;13.20;99.90
2651;DHT22;1335;48.180;16.342;2022-10-31T11:37:26;13.10;99.90
2651;DHT22;1335;48.180;16.342;2022-10-31T11:40:03;12.90;99.90
2651;DHT22;1335;48.180;16.342;2022-10-31T11:42:36;12.50;99.90
2651;DHT22;1335;48.180;16.342;2022-10-31T11:45:07;13.60;99.90
2651;DHT22;1335;48.180;16.342;2022-10-31T11:47:43;12.50;99.90
2651;DHT22;1335;48.180;16.342;2022-10-31T11:50:18;13.00;99.90
2651;DHT22;1335;48.180;16.342;2022-10-31T11:52:48;12.80;99.90
2651;DHT22;1335;48.180;16.342;2022-10-31T11:55:32;13.10;99.90
2651;DHT22;1335;48.180;16.342;2022-10-31T11:58:01;13.60;99.90
2651;DHT22;1335;48.180;16.342;2022-10-31T12:00:31;13.70;99.90
2651;DHT22;1335;48.180;16.342;2022-10-31T12:03:27;13.30;99.90
2651;DHT22;1335;48.180;16.342;2022-10-31T12:06:02;13.00;99.90
2651;DHT22;1335;48.180;16.342;2022-10-31T12:08:33;12.60;99.90
2651;DHT22;1335;48.180;16.342;2022-10-31T12:11:11;12.80;99.90
2651;DHT22;1335;48.180;16.342;2022-10-31T12:13:53;13.00;99.90
2651;DHT22;1335;48.180;16.342;2022-10-31T12:16:30;13.10;99.90
2651;DHT22;1335;48.180;16.342;2022-10-31T12:19:03;12.70;99.90
2651;DHT22;1335;48.180;16.342;2022-10-31T12:21:42;12.30;99.90
2651;DHT22;1335;48.180;16.342;2022-10-31T12:24:28;12.30;99.90
2651;DHT22;1335;48.180;16.342;2022-10-31T12:27:10;12.40;99.90
2651;DHT22;1335;48.180;16.342;2022-10-31T12:30:09;12.70;99.90
2651;DHT22;1335;48.180;16.342;2022-10-31T12:32:43;12.70;99.90
2651;DHT22;1335;48.180;16.342;2022-10-31T12:35:32;13.00;99.90
2651;DHT22;1335;48.180;16.342;2022-10-31T12:41:07;13.30;99.90
2651;DHT22;1335;48.180;16.342;2022-10-31T12:43:46;13.20;99.90
2651;DHT22;1335;48.180;16.342;2022-10-31T12:46:23;12.30;99.90
2651;DHT22;1335;48.180;16.342;2022-10-31T12:49:18;12.60;99.90
2651;DHT22;1335;48.180;16.342;2022-10-31T12:51:54;13.00;99.90
2651;DHT22;1335;48.180;16.342;2022-10-31T12:54:37;12.80;99.90
2651;DHT22;1335;48.180;16.342;2022-10-31T12:57:13;12.60;99.90
2651;DHT22;1335;48.180;16.342;2022-10-31T12:59:59;12.40;99.90
2651;DHT22;1335;48.180;16.342;2022-10-31T13:02:35;13.00;99.90
2651;DHT22;1335;48.180;16.342;2022-10-31T13:05:14;12.90;99.90
2651;DHT22;1335;48.180;16.342;2022-10-31T13:08:06;12.90;99.90
2651;DHT22;1335;48.180;16.342;2022-10-31T13:11:20;12.90;99.90
2651;DHT22;1335;48.180;16.342;2022-10-31T13:14:27;12.50;99.90
2651;DHT22;1335;48.180;16.342;2022-10-31T13:17:04;13.20;99.90
2651;DHT22;1335;48.180;16.342;2022-10-31T13:19:47;12.40;99.90
2651;DHT22;1335;48.180;16.342;2022-10-31T13:22:38;12.30;99.90
2651;DHT22;1335;48.180;16.342;2022-10-31T13:25:15;12.50;99.90
2651;DHT22;1335;48.180;16.342;2022-10-31T13:27:50;12.20;99.90
2651;DHT22;1335;48.180;16.342;2022-10-31T13:30:46;12.80;99.90
2651;DHT22;1335;48.180;16.342;2022-10-31T13:33:23;12.50;99.90
2651;DHT22;1335;48.180;16.342;2022-10-31T13:36:19;12.80;99.90
2651;DHT22;1335;48.180;16.342;2022-10-31T13:39:15;12.40;99.90
2651;DHT22;1335;48.180;16.342;2022-10-31T13:42:10;12.10;99.90
2651;DHT22;1335;48.180;16.342;2022-10-31T13:44:42;12.50;99.90
2651;DHT22;1335;48.180;16.342;2022-10-31T13:47:29;12.40;99.90
2651;DHT22;1335;48.180;16.342;2022-10-31T13:53:42;12.40;99.90
2651;DHT22;1335;48.180;16.342;2022-10-31T13:56:24;12.20;99.90
2651;DHT22;1335;48.180;16.342;2022-10-31T13:59:02;12.40;99.90
2651;DHT22;1335;48.180;16.342;2022-10-31T14:01:33;12.10;99.90
2651;DHT22;1335;48.180;16.342;2022-10-31T14:04:19;12.00;99.90
2651;DHT22;1335;48.180;16.342;2022-10-31T14:06:54;12.20;99.90
2651;DHT22;1335;48.180;16.342;2022-10-31T14:09:32;12.70;99.90
2651;DHT22;1335;48.180;16.342;2022-10-31T14:12:13;12.40;99.90
2651;DHT22;1335;48.180;16.342;2022-10-31T14:14:56;12.20;99.90
2651;DHT22;1335;48.180;16.342;2022-10-31T14:21:00;12.50;99.90
2651;DHT22;1335;48.180;16.342;2022-10-31T14:23:37;12.20;99.90
2651;DHT22;1335;48.180;16.342;2022-10-31T14:26:33;11.80;99.90
2651;DHT22;1335;48.180;16.342;2022-10-31T14:29:25;12.80;99.90
2651;DHT22;1335;48.180;16.342;2022-10-31T14:36:11;12.30;99.90
2651;DHT22;1335;48.180;16.342;2022-10-31T14:43:10;12.20;99.90
2651;DHT22;1335;48.180;16.342;2022-10-31T14:45:49;12.50;99.90
2651;DHT22;1335;48.180;16.342;2022-10-31T14:48:44;12.10;99.90
2651;DHT22;1335;48.180;16.342;2022-10-31T14:51:29;12.00;99.90
2651;DHT22;1335;48.180;16.342;2022-10-31T14:54:05;12.10;99.90
2651;DHT22;1335;48.180;16.342;2022-10-31T14:57:13;12.50;99.90
2651;DHT22;1335;48.180;16.342;2022-10-31T15:00:03;12.00;99.90
2651;DHT22;1335;48.180;16.342;2022-10-31T15:03:09;12.40;99.90
2651;DHT22;1335;48.180;16.342;2022-10-31T15:06:02;12.00;99.90
2651;DHT22;1335;48.180;16.342;2022-10-31T15:08:34;12.30;99.90
2651;DHT22;1335;48.180;16.342;2022-10-31T15:11:13;12.40;99.90
2651;DHT22;1335;48.180;16.342;2022-10-31T15:13:44;12.50;99.90
2651;DHT22;1335;48.180;16.342;2022-10-31T15:16:19;11.70;99.90
2651;DHT22;1335;48.180;16.342;2022-10-31T15:18:57;11.90;99.90
2651;DHT22;1335;48.180;16.342;2022-10-31T15:21:29;12.60;99.90
2651;DHT22;1335;48.180;16.342;2022-10-31T15:23:59;12.40;99.90
2651;DHT22;1335;48.180;16.342;2022-10-31T15:26:31;12.10;99.90
2651;DHT22;1335;48.180;16.342;2022-10-31T15:29:00;11.90;99.90
2651;DHT22;1335;48.180;16.342;2022-10-31T15:31:30;12.10;99.90
2651;DHT22;1335;48.180;16.342;2022-10-31T15:34:04;11.60;99.90
2651;DHT22;1335;48.180;16.342;2022-10-31T15:36:37;11.50;99.90
2651;DHT22;1335;48.180;16.342;2022-10-31T15:39:05;11.50;99.90
2651;DHT22;1335;48.180;16.342;2022-10-31T15:41:35;12.10;99.90
2651;DHT22;1335;48.180;16.342;2022-10-31T15:44:12;11.90;99.90
2651;DHT22;1335;48.180;16.342;2022-10-31T15:46:42;12.20;99.90
2651;DHT22;1335;48.180;16.342;2022-10-31T15:49:26;11.40;99.90
2651;DHT22;1335;48.180;16.342;2022-10-31T15:51:55;11.70;99.90
2651;DHT22;1335;48.180;16.342;2022-10-31T15:54:25;11.90;99.90
2651;DHT22;1335;48.180;16.342;2022-10-31T15:56:53;12.00;99.90
2651;DHT22;1335;48.180;16.342;2022-10-31T15:59:23;11.80;99.90
2651;DHT22;1335;48.180;16.342;2022-10-31T16:02:01;11.90;99.90
2651;DHT22;1335;48.180;16.342;2022-10-31T16:04:29;11.90;99.90
2651;DHT22;1335;48.180;16.342;2022-10-31T16:07:11;11.60;99.90
2651;DHT22;1335;48.180;16.342;2022-10-31T16:09:49;11.80;99.90
2651;DHT22;1335;48.180;16.342;2022-10-31T16:12:17;11.70;99.90
2651;DHT22;1335;48.180;16.342;2022-10-31T16:14:46;11.80;99.90
2651;DHT22;1335;48.180;16.342;2022-10-31T16:17:17;11.70;99.90
2651;DHT22;1335;48.180;16.342;2022-10-31T16:19:51;12.10;99.90
2651;DHT22;1335;48.180;16.342;2022-10-31T16:22:22;12.10;99.90
2651;DHT22;1335;48.180;16.342;2022-10-31T16:24:56;12.10;99.90
2651;DHT22;1335;48.180;16.342;2022-10-31T16:27:30;11.60;99.90
2651;DHT22;1335;48.180;16.342;2022-10-31T16:30:00;11.30;99.90
2651;DHT22;1335;48.180;16.342;2022-10-31T16:32:53;11.30;99.90
2651;DHT22;1335;48.180;16.342;2022-10-31T16:35:26;11.00;99.90
2651;DHT22;1335;48.180;16.342;2022-10-31T16:37:54;11.40;99.90
2651;DHT22;1335;48.180;16.342;2022-10-31T16:40:23;11.30;99.90
2651;DHT22;1335;48.180;16.342;2022-10-31T16:42:51;11.20;99.90
2651;DHT22;1335;48.180;16.342;2022-10-31T16:45:21;11.20;99.90
2651;DHT22;1335;48.180;16.342;2022-10-31T16:47:49;11.90;99.90